sensor_id;sensor_type;location;lat;lon;timestamp;temperature;humidity
15934;DHT22;8066;48.776;11.384;2022-07-29T00:00:38;27.40;40.30
15934;DHT22;8066;48.776;11.384;2022-07-29T00:03:05;27.30;40.60
15934;DHT22;8066;48.776;11.384;2022-07-29T00:05:33;27.20;41.00
15934;DHT22;8066;48.776;11.384;2022-07-29T00:08:00;27.30;41.60
15934;DHT22;8066;48.776;11.384;2022-07-29T00:10:27;27.10;41.90
15934;DHT22;8066;48.776;11.384;2022-07-29T00:12:53;27.20;42.30
15934;DHT22;8066;48.776;11.384;2022-07-29T00:15:20;27.00;42.40
15934;DHT22;8066;48.776;11.384;2022-07-29T00:17:47;26.90;42.60
15934;DHT22;8066;48.776;11.384;2022-07-29T00:20:14;26.90;43.00
15934;DHT22;8066;48.776;11.384;2022-07-29T00:22:43;26.80;43.10
15934;DHT22;8066;48.776;11.384;2022-07-29T00:25:12;26.80;43.60
15934;DHT22;8066;48.776;11.384;2022-07-29T00:27:39;26.80;43.90
15934;DHT22;8066;48.776;11.384;2022-07-29T00:30:07;26.70;43.80
15934;DHT22;8066;48.776;11.384;2022-07-29T00:32:35;26.60;43.90
15934;DHT22;8066;48.776;11.384;2022-07-29T00:35:01;26.60;44.10
15934;DHT22;8066;48.776;11.384;2022-07-29T00:37:48;26.60;44.40
15934;DHT22;8066;48.776;11.384;2022-07-29T00:40:15;26.50;44.70
15934;DHT22;8066;48.776;11.384;2022-07-29T00:42:42;26.50;44.70
15934;DHT22;8066;48.776;11.384;2022-07-29T00:45:10;26.40;44.90
15934;DHT22;8066;48.776;11.384;2022-07-29T00:47:38;26.40;45.00
15934;DHT22;8066;48.776;11.384;2022-07-29T00:50:06;26.40;45.20
15934;DHT22;8066;48.776;11.384;2022-07-29T00:52:36;26.40;45.30
15934;DHT22;8066;48.776;11.384;2022-07-29T00:55:08;26.30;45.40
15934;DHT22;8066;48.776;11.384;2022-07-29T00:57:37;26.30;45.80
15934;DHT22;8066;48.776;11.384;2022-07-29T01:00:06;26.30;45.50
15934;DHT22;8066;48.776;11.384;2022-07-29T01:02:35;26.30;45.70
15934;DHT22;8066;48.776;11.384;2022-07-29T01:05:02;26.30;45.60
15934;DHT22;8066;48.776;11.384;2022-07-29T01:07:32;26.20;45.70
15934;DHT22;8066;48.776;11.384;2022-07-29T01:10:02;26.30;45.90
15934;DHT22;8066;48.776;11.384;2022-07-29T01:12:32;26.30;45.80
15934;DHT22;8066;48.776;11.384;2022-07-29T01:15:01;26.30;46.10
15934;DHT22;8066;48.776;11.384;2022-07-29T01:17:36;26.30;45.90
15934;DHT22;8066;48.776;11.384;2022-07-29T01:20:13;26.30;46.00
15934;DHT22;8066;48.776;11.384;2022-07-29T01:29:10;26.40;46.30
15934;DHT22;8066;48.776;11.384;2022-07-29T01:31:43;26.40;46.20
15934;DHT22;8066;48.776;11.384;2022-07-29T01:34:19;26.40;46.30
15934;DHT22;8066;48.776;11.384;2022-07-29T01:36:51;26.30;46.20
15934;DHT22;8066;48.776;11.384;2022-07-29T01:39:28;26.30;46.10
15934;DHT22;8066;48.776;11.384;2022-07-29T01:42:01;26.30;46.30
15934;DHT22;8066;48.776;11.384;2022-07-29T01:44:43;26.30;46.40
15934;DHT22;8066;48.776;11.384;2022-07-29T01:47:19;26.30;47.20
15934;DHT22;8066;48.776;11.384;2022-07-29T01:49:52;26.20;46.50
15934;DHT22;8066;48.776;11.384;2022-07-29T01:52:27;26.20;46.40
15934;DHT22;8066;48.776;11.384;2022-07-29T01:55:06;26.20;46.70
15934;DHT22;8066;48.776;11.384;2022-07-29T01:57:40;26.20;46.90
15934;DHT22;8066;48.776;11.384;2022-07-29T02:00:13;26.20;46.70
15934;DHT22;8066;48.776;11.384;2022-07-29T02:02:43;26.20;46.80
15934;DHT22;8066;48.776;11.384;2022-07-29T02:05:15;26.10;46.70
15934;DHT22;8066;48.776;11.384;2022-07-29T02:07:46;26.10;46.90
15934;DHT22;8066;48.776;11.384;2022-07-29T02:10:17;26.10;46.90
15934;DHT22;8066;48.776;11.384;2022-07-29T02:12:48;25.90;46.90
15934;DHT22;8066;48.776;11.384;2022-07-29T02:15:19;26.00;47.10
15934;DHT22;8066;48.776;11.384;2022-07-29T02:17:50;26.00;47.30
15934;DHT22;8066;48.776;11.384;2022-07-29T02:20:19;25.80;47.50
15934;DHT22;8066;48.776;11.384;2022-07-29T02:22:49;25.80;47.20
15934;DHT22;8066;48.776;11.384;2022-07-29T02:25:18;25.90;47.60
15934;DHT22;8066;48.776;11.384;2022-07-29T02:27:48;25.80;47.50
15934;DHT22;8066;48.776;11.384;2022-07-29T02:30:18;25.80;47.80
15934;DHT22;8066;48.776;11.384;2022-07-29T02:32:48;25.70;48.00
15934;DHT22;8066;48.776;11.384;2022-07-29T02:35:18;25.70;48.10
15934;DHT22;8066;48.776;11.384;2022-07-29T02:37:47;25.70;48.20
15934;DHT22;8066;48.776;11.384;2022-07-29T02:40:38;25.60;48.40
15934;DHT22;8066;48.776;11.384;2022-07-29T02:43:07;25.40;48.70
15934;DHT22;8066;48.776;11.384;2022-07-29T02:45:38;25.60;48.80
15934;DHT22;8066;48.776;11.384;2022-07-29T02:48:08;25.60;49.10
15934;DHT22;8066;48.776;11.384;2022-07-29T02:50:44;25.50;49.30
15934;DHT22;8066;48.776;11.384;2022-07-29T02:53:18;25.60;49.80
15934;DHT22;8066;48.776;11.384;2022-07-29T02:55:55;25.40;49.30
15934;DHT22;8066;48.776;11.384;2022-07-29T02:58:28;25.30;49.50
15934;DHT22;8066;48.776;11.384;2022-07-29T03:01:02;25.40;49.60
15934;DHT22;8066;48.776;11.384;2022-07-29T03:03:33;25.40;49.80
15934;DHT22;8066;48.776;11.384;2022-07-29T03:06:04;25.30;49.70
15934;DHT22;8066;48.776;11.384;2022-07-29T03:08:32;25.40;49.70
15934;DHT22;8066;48.776;11.384;2022-07-29T03:11:01;25.40;49.80
15934;DHT22;8066;48.776;11.384;2022-07-29T03:13:29;25.40;49.80
15934;DHT22;8066;48.776;11.384;2022-07-29T03:15:59;25.40;49.90
15934;DHT22;8066;48.776;11.384;2022-07-29T03:18:27;25.40;50.00
15934;DHT22;8066;48.776;11.384;2022-07-29T03:20:54;25.40;49.90
15934;DHT22;8066;48.776;11.384;2022-07-29T03:23:22;25.40;50.00
15934;DHT22;8066;48.776;11.384;2022-07-29T03:25:51;25.40;50.00
15934;DHT22;8066;48.776;11.384;2022-07-29T03:28:19;25.40;50.00
15934;DHT22;8066;48.776;11.384;2022-07-29T03:30:46;25.50;50.10
15934;DHT22;8066;48.776;11.384;2022-07-29T03:33:14;25.40;50.10
15934;DHT22;8066;48.776;11.384;2022-07-29T03:35:41;25.30;50.20
15934;DHT22;8066;48.776;11.384;2022-07-29T03:38:08;25.40;50.20
15934;DHT22;8066;48.776;11.384;2022-07-29T03:40:38;25.60;50.40
15934;DHT22;8066;48.776;11.384;2022-07-29T03:43:10;25.50;50.60
15934;DHT22;8066;48.776;11.384;2022-07-29T03:45:38;25.40;50.50
15934;DHT22;8066;48.776;11.384;2022-07-29T03:48:12;25.40;50.50
15934;DHT22;8066;48.776;11.384;2022-07-29T03:50:42;25.40;50.70
15934;DHT22;8066;48.776;11.384;2022-07-29T03:53:10;25.40;50.50
15934;DHT22;8066;48.776;11.384;2022-07-29T03:55:41;25.40;50.60
15934;DHT22;8066;48.776;11.384;2022-07-29T03:58:10;25.40;50.80
15934;DHT22;8066;48.776;11.384;2022-07-29T04:00:40;25.40;50.80
15934;DHT22;8066;48.776;11.384;2022-07-29T04:03:08;25.40;50.90
15934;DHT22;8066;48.776;11.384;2022-07-29T04:05:37;25.40;51.00
15934;DHT22;8066;48.776;11.384;2022-07-29T04:08:05;25.40;51.10
15934;DHT22;8066;48.776;11.384;2022-07-29T04:10:32;25.40;51.00
15934;DHT22;8066;48.776;11.384;2022-07-29T04:12:59;25.40;51.10
15934;DHT22;8066;48.776;11.384;2022-07-29T04:15:26;25.30;51.10
15934;DHT22;8066;48.776;11.384;2022-07-29T04:17:54;25.30;51.10
15934;DHT22;8066;48.776;11.384;2022-07-29T04:20:21;25.30;51.20
15934;DHT22;8066;48.776;11.384;2022-07-29T04:22:49;25.30;51.30
15934;DHT22;8066;48.776;11.384;2022-07-29T04:25:16;25.30;51.50
15934;DHT22;8066;48.776;11.384;2022-07-29T04:27:43;25.30;51.50
15934;DHT22;8066;48.776;11.384;2022-07-29T04:30:24;25.30;51.60
15934;DHT22;8066;48.776;11.384;2022-07-29T04:32:51;25.30;51.60
15934;DHT22;8066;48.776;11.384;2022-07-29T04:35:18;25.20;51.60
15934;DHT22;8066;48.776;11.384;2022-07-29T04:37:45;25.30;51.80
15934;DHT22;8066;48.776;11.384;2022-07-29T04:40:13;25.20;51.80
15934;DHT22;8066;48.776;11.384;2022-07-29T04:42:40;25.20;52.00
15934;DHT22;8066;48.776;11.384;2022-07-29T04:45:07;25.30;51.90
15934;DHT22;8066;48.776;11.384;2022-07-29T04:47:35;25.10;51.90
15934;DHT22;8066;48.776;11.384;2022-07-29T04:50:02;25.20;52.00
15934;DHT22;8066;48.776;11.384;2022-07-29T04:52:30;25.20;52.20
15934;DHT22;8066;48.776;11.384;2022-07-29T04:54:57;25.10;52.10
15934;DHT22;8066;48.776;11.384;2022-07-29T04:57:26;25.20;52.20
15934;DHT22;8066;48.776;11.384;2022-07-29T04:59:53;25.20;52.30
15934;DHT22;8066;48.776;11.384;2022-07-29T05:02:19;25.20;52.20
15934;DHT22;8066;48.776;11.384;2022-07-29T05:04:47;25.20;52.20
15934;DHT22;8066;48.776;11.384;2022-07-29T05:07:14;25.30;52.40
15934;DHT22;8066;48.776;11.384;2022-07-29T05:09:41;25.30;52.50
15934;DHT22;8066;48.776;11.384;2022-07-29T05:12:08;25.30;52.50
15934;DHT22;8066;48.776;11.384;2022-07-29T05:14:37;25.40;52.60
15934;DHT22;8066;48.776;11.384;2022-07-29T05:17:04;25.50;52.60
15934;DHT22;8066;48.776;11.384;2022-07-29T05:19:31;25.70;52.50
15934;DHT22;8066;48.776;11.384;2022-07-29T05:21:58;25.70;52.40
15934;DHT22;8066;48.776;11.384;2022-07-29T05:24:25;25.80;52.20
15934;DHT22;8066;48.776;11.384;2022-07-29T05:26:52;25.80;52.10
15934;DHT22;8066;48.776;11.384;2022-07-29T05:29:19;25.80;51.90
15934;DHT22;8066;48.776;11.384;2022-07-29T05:31:47;25.90;51.70
15934;DHT22;8066;48.776;11.384;2022-07-29T05:34:14;25.90;51.70
15934;DHT22;8066;48.776;11.384;2022-07-29T05:36:41;26.00;51.60
15934;DHT22;8066;48.776;11.384;2022-07-29T05:39:08;26.00;51.50
15934;DHT22;8066;48.776;11.384;2022-07-29T05:41:35;26.00;51.60
15934;DHT22;8066;48.776;11.384;2022-07-29T05:44:02;26.10;51.80
15934;DHT22;8066;48.776;11.384;2022-07-29T05:46:29;26.10;51.80
15934;DHT22;8066;48.776;11.384;2022-07-29T05:48:57;26.20;51.70
15934;DHT22;8066;48.776;11.384;2022-07-29T05:51:24;26.50;51.70
15934;DHT22;8066;48.776;11.384;2022-07-29T05:53:51;26.30;51.30
15934;DHT22;8066;48.776;11.384;2022-07-29T05:56:18;26.30;51.30
15934;DHT22;8066;48.776;11.384;2022-07-29T05:58:45;26.40;51.60
15934;DHT22;8066;48.776;11.384;2022-07-29T06:01:12;26.50;51.70
15934;DHT22;8066;48.776;11.384;2022-07-29T06:03:39;26.60;51.80
15934;DHT22;8066;48.776;11.384;2022-07-29T06:06:08;26.90;52.00
15934;DHT22;8066;48.776;11.384;2022-07-29T06:08:35;27.00;51.80
15934;DHT22;8066;48.776;11.384;2022-07-29T06:11:03;27.30;51.70
15934;DHT22;8066;48.776;11.384;2022-07-29T06:13:30;27.50;51.40
15934;DHT22;8066;48.776;11.384;2022-07-29T06:15:57;27.70;51.10
15934;DHT22;8066;48.776;11.384;2022-07-29T06:18:24;27.80;50.60
15934;DHT22;8066;48.776;11.384;2022-07-29T06:20:51;28.20;50.50
15934;DHT22;8066;48.776;11.384;2022-07-29T06:23:20;28.30;50.20
15934;DHT22;8066;48.776;11.384;2022-07-29T06:25:47;28.50;50.00
15934;DHT22;8066;48.776;11.384;2022-07-29T06:28:14;28.60;49.80
15934;DHT22;8066;48.776;11.384;2022-07-29T06:30:41;28.50;49.30
15934;DHT22;8066;48.776;11.384;2022-07-29T06:33:08;28.70;49.10
15934;DHT22;8066;48.776;11.384;2022-07-29T06:35:35;28.70;48.80
15934;DHT22;8066;48.776;11.384;2022-07-29T06:38:02;28.70;48.70
15934;DHT22;8066;48.776;11.384;2022-07-29T06:40:31;28.90;48.70
15934;DHT22;8066;48.776;11.384;2022-07-29T06:43:15;28.90;48.60
15934;DHT22;8066;48.776;11.384;2022-07-29T06:45:42;29.00;48.60
15934;DHT22;8066;48.776;11.384;2022-07-29T06:48:09;29.00;48.30
15934;DHT22;8066;48.776;11.384;2022-07-29T06:50:36;29.30;48.30
15934;DHT22;8066;48.776;11.384;2022-07-29T06:53:03;29.30;48.10
15934;DHT22;8066;48.776;11.384;2022-07-29T06:55:32;29.30;47.80
15934;DHT22;8066;48.776;11.384;2022-07-29T06:57:58;29.40;47.50
15934;DHT22;8066;48.776;11.384;2022-07-29T07:00:25;29.60;47.60
15934;DHT22;8066;48.776;11.384;2022-07-29T07:02:52;29.70;47.80
15934;DHT22;8066;48.776;11.384;2022-07-29T07:05:19;29.90;48.00
15934;DHT22;8066;48.776;11.384;2022-07-29T07:07:46;30.20;48.90
15934;DHT22;8066;48.776;11.384;2022-07-29T07:10:13;30.70;48.40
15934;DHT22;8066;48.776;11.384;2022-07-29T07:12:41;31.10;48.30
15934;DHT22;8066;48.776;11.384;2022-07-29T07:15:09;31.70;48.00
15934;DHT22;8066;48.776;11.384;2022-07-29T07:17:36;32.20;47.60
15934;DHT22;8066;48.776;11.384;2022-07-29T07:20:04;32.80;46.90
15934;DHT22;8066;48.776;11.384;2022-07-29T07:22:32;33.30;46.20
15934;DHT22;8066;48.776;11.384;2022-07-29T07:24:59;33.90;45.60
15934;DHT22;8066;48.776;11.384;2022-07-29T07:27:26;34.50;44.80
15934;DHT22;8066;48.776;11.384;2022-07-29T07:29:54;35.00;43.90
15934;DHT22;8066;48.776;11.384;2022-07-29T07:32:21;35.50;42.60
15934;DHT22;8066;48.776;11.384;2022-07-29T07:34:48;36.00;42.50
15934;DHT22;8066;48.776;11.384;2022-07-29T07:37:15;36.50;41.70
15934;DHT22;8066;48.776;11.384;2022-07-29T07:39:44;36.90;41.50
15934;DHT22;8066;48.776;11.384;2022-07-29T07:42:11;37.40;40.10
15934;DHT22;8066;48.776;11.384;2022-07-29T07:44:38;37.80;39.60
15934;DHT22;8066;48.776;11.384;2022-07-29T07:47:06;38.20;38.70
15934;DHT22;8066;48.776;11.384;2022-07-29T07:49:33;38.60;38.00
15934;DHT22;8066;48.776;11.384;2022-07-29T07:52:00;39.00;37.70
15934;DHT22;8066;48.776;11.384;2022-07-29T07:54:27;39.40;36.80
15934;DHT22;8066;48.776;11.384;2022-07-29T07:56:54;39.70;35.90
15934;DHT22;8066;48.776;11.384;2022-07-29T07:59:21;39.90;35.80
15934;DHT22;8066;48.776;11.384;2022-07-29T08:01:48;40.10;34.80
15934;DHT22;8066;48.776;11.384;2022-07-29T08:04:16;40.30;34.00
15934;DHT22;8066;48.776;11.384;2022-07-29T08:06:43;40.40;33.20
15934;DHT22;8066;48.776;11.384;2022-07-29T08:09:10;40.40;33.20
15934;DHT22;8066;48.776;11.384;2022-07-29T08:11:37;40.50;33.20
15934;DHT22;8066;48.776;11.384;2022-07-29T08:14:04;40.70;33.10
15934;DHT22;8066;48.776;11.384;2022-07-29T08:16:31;41.00;32.80
15934;DHT22;8066;48.776;11.384;2022-07-29T08:18:57;41.30;32.20
15934;DHT22;8066;48.776;11.384;2022-07-29T08:21:26;41.40;31.70
15934;DHT22;8066;48.776;11.384;2022-07-29T08:23:52;41.70;31.30
15934;DHT22;8066;48.776;11.384;2022-07-29T08:26:40;41.90;30.90
15934;DHT22;8066;48.776;11.384;2022-07-29T08:29:07;42.20;30.50
15934;DHT22;8066;48.776;11.384;2022-07-29T08:31:35;42.40;30.00
15934;DHT22;8066;48.776;11.384;2022-07-29T08:34:02;42.60;30.00
15934;DHT22;8066;48.776;11.384;2022-07-29T08:36:31;42.80;29.60
15934;DHT22;8066;48.776;11.384;2022-07-29T08:39:00;43.00;29.00
15934;DHT22;8066;48.776;11.384;2022-07-29T08:41:27;43.40;29.20
15934;DHT22;8066;48.776;11.384;2022-07-29T08:43:54;43.70;29.00
15934;DHT22;8066;48.776;11.384;2022-07-29T08:46:22;44.00;29.00
15934;DHT22;8066;48.776;11.384;2022-07-29T08:48:49;44.30;28.50
15934;DHT22;8066;48.776;11.384;2022-07-29T08:51:17;44.60;28.10
15934;DHT22;8066;48.776;11.384;2022-07-29T08:53:48;44.80;27.40
15934;DHT22;8066;48.776;11.384;2022-07-29T08:56:17;45.10;27.10
15934;DHT22;8066;48.776;11.384;2022-07-29T08:58:45;45.30;27.20
15934;DHT22;8066;48.776;11.384;2022-07-29T09:01:17;45.60;27.00
15934;DHT22;8066;48.776;11.384;2022-07-29T09:03:49;45.80;26.20
15934;DHT22;8066;48.776;11.384;2022-07-29T09:06:18;46.00;26.20
15934;DHT22;8066;48.776;11.384;2022-07-29T09:08:48;46.10;25.90
15934;DHT22;8066;48.776;11.384;2022-07-29T09:11:16;46.20;25.60
15934;DHT22;8066;48.776;11.384;2022-07-29T09:13:43;46.20;25.30
15934;DHT22;8066;48.776;11.384;2022-07-29T09:16:10;46.20;25.00
15934;DHT22;8066;48.776;11.384;2022-07-29T09:18:38;46.20;24.80
15934;DHT22;8066;48.776;11.384;2022-07-29T09:21:11;46.10;24.50
15934;DHT22;8066;48.776;11.384;2022-07-29T09:24:05;45.90;24.30
15934;DHT22;8066;48.776;11.384;2022-07-29T09:26:38;45.60;23.90
15934;DHT22;8066;48.776;11.384;2022-07-29T09:29:10;45.40;24.00
15934;DHT22;8066;48.776;11.384;2022-07-29T09:31:40;45.10;23.80
15934;DHT22;8066;48.776;11.384;2022-07-29T09:34:09;44.80;23.90
15934;DHT22;8066;48.776;11.384;2022-07-29T09:36:40;44.50;24.10
15934;DHT22;8066;48.776;11.384;2022-07-29T09:39:10;44.10;24.00
15934;DHT22;8066;48.776;11.384;2022-07-29T09:41:46;44.00;24.20
15934;DHT22;8066;48.776;11.384;2022-07-29T09:44:15;43.80;24.30
15934;DHT22;8066;48.776;11.384;2022-07-29T09:46:56;43.60;24.50
15934;DHT22;8066;48.776;11.384;2022-07-29T09:49:25;43.40;24.20
15934;DHT22;8066;48.776;11.384;2022-07-29T09:52:05;43.20;24.30
15934;DHT22;8066;48.776;11.384;2022-07-29T09:54:36;43.10;24.50
15934;DHT22;8066;48.776;11.384;2022-07-29T09:57:04;43.10;24.60
15934;DHT22;8066;48.776;11.384;2022-07-29T09:59:32;43.10;24.60
15934;DHT22;8066;48.776;11.384;2022-07-29T10:02:00;43.10;24.50
15934;DHT22;8066;48.776;11.384;2022-07-29T10:04:38;43.00;24.30
15934;DHT22;8066;48.776;11.384;2022-07-29T10:07:06;42.80;24.20
15934;DHT22;8066;48.776;11.384;2022-07-29T10:09:35;42.60;24.30
15934;DHT22;8066;48.776;11.384;2022-07-29T10:12:04;42.50;24.40
15934;DHT22;8066;48.776;11.384;2022-07-29T10:14:32;42.40;24.50
15934;DHT22;8066;48.776;11.384;2022-07-29T10:17:00;42.30;24.60
15934;DHT22;8066;48.776;11.384;2022-07-29T10:19:28;42.20;24.60
15934;DHT22;8066;48.776;11.384;2022-07-29T10:21:57;42.00;24.60
15934;DHT22;8066;48.776;11.384;2022-07-29T10:24:26;42.10;24.80
15934;DHT22;8066;48.776;11.384;2022-07-29T10:26:57;42.00;24.90
15934;DHT22;8066;48.776;11.384;2022-07-29T10:29:26;42.00;24.80
15934;DHT22;8066;48.776;11.384;2022-07-29T10:32:08;42.20;25.00
15934;DHT22;8066;48.776;11.384;2022-07-29T10:35:19;42.30;24.70
15934;DHT22;8066;48.776;11.384;2022-07-29T10:41:20;42.30;24.90
15934;DHT22;8066;48.776;11.384;2022-07-29T10:44:04;42.20;25.00
15934;DHT22;8066;48.776;11.384;2022-07-29T10:46:35;42.10;25.10
15934;DHT22;8066;48.776;11.384;2022-07-29T10:49:08;42.20;25.50
15934;DHT22;8066;48.776;11.384;2022-07-29T10:52:00;42.40;25.60
15934;DHT22;8066;48.776;11.384;2022-07-29T10:54:41;42.70;25.80
15934;DHT22;8066;48.776;11.384;2022-07-29T10:57:15;43.30;25.70
15934;DHT22;8066;48.776;11.384;2022-07-29T10:59:49;43.90;25.40
15934;DHT22;8066;48.776;11.384;2022-07-29T11:02:44;44.50;25.40
15934;DHT22;8066;48.776;11.384;2022-07-29T11:05:14;45.10;25.10
15934;DHT22;8066;48.776;11.384;2022-07-29T11:08:19;45.70;24.90
15934;DHT22;8066;48.776;11.384;2022-07-29T11:13:57;46.90;24.10
15934;DHT22;8066;48.776;11.384;2022-07-29T11:16:25;47.40;23.60
15934;DHT22;8066;48.776;11.384;2022-07-29T11:19:22;47.70;23.10
15934;DHT22;8066;48.776;11.384;2022-07-29T11:21:50;47.90;22.80
15934;DHT22;8066;48.776;11.384;2022-07-29T11:24:20;47.80;22.30
15934;DHT22;8066;48.776;11.384;2022-07-29T11:27:12;47.60;22.00
15934;DHT22;8066;48.776;11.384;2022-07-29T11:29:49;47.20;21.80
15934;DHT22;8066;48.776;11.384;2022-07-29T11:32:22;46.70;21.80
15934;DHT22;8066;48.776;11.384;2022-07-29T11:35:11;46.20;22.00
15934;DHT22;8066;48.776;11.384;2022-07-29T11:37:40;45.70;22.40
15934;DHT22;8066;48.776;11.384;2022-07-29T11:40:17;45.40;22.70
15934;DHT22;8066;48.776;11.384;2022-07-29T11:42:48;45.10;22.80
15934;DHT22;8066;48.776;11.384;2022-07-29T11:45:18;44.90;22.80
15934;DHT22;8066;48.776;11.384;2022-07-29T11:47:56;44.60;22.90
15934;DHT22;8066;48.776;11.384;2022-07-29T11:50:32;44.50;23.20
15934;DHT22;8066;48.776;11.384;2022-07-29T11:53:01;44.60;23.20
15934;DHT22;8066;48.776;11.384;2022-07-29T11:55:30;44.80;23.40
15934;DHT22;8066;48.776;11.384;2022-07-29T11:58:01;45.00;23.40
15934;DHT22;8066;48.776;11.384;2022-07-29T12:00:31;45.20;23.30
15934;DHT22;8066;48.776;11.384;2022-07-29T12:03:02;45.50;23.20
15934;DHT22;8066;48.776;11.384;2022-07-29T12:05:38;45.80;22.50
15934;DHT22;8066;48.776;11.384;2022-07-29T12:08:12;46.10;22.30
15934;DHT22;8066;48.776;11.384;2022-07-29T12:10:40;46.40;21.80
15934;DHT22;8066;48.776;11.384;2022-07-29T12:13:08;46.60;21.80
15934;DHT22;8066;48.776;11.384;2022-07-29T12:15:36;46.90;21.70
15934;DHT22;8066;48.776;11.384;2022-07-29T12:18:13;47.00;21.60
15934;DHT22;8066;48.776;11.384;2022-07-29T12:20:41;47.00;21.20
15934;DHT22;8066;48.776;11.384;2022-07-29T12:23:10;47.10;21.30
15934;DHT22;8066;48.776;11.384;2022-07-29T12:25:40;47.20;21.30
15934;DHT22;8066;48.776;11.384;2022-07-29T12:28:10;47.30;21.30
15934;DHT22;8066;48.776;11.384;2022-07-29T12:30:41;47.30;21.30
15934;DHT22;8066;48.776;11.384;2022-07-29T12:33:13;47.10;21.00
15934;DHT22;8066;48.776;11.384;2022-07-29T12:35:45;46.70;21.00
15934;DHT22;8066;48.776;11.384;2022-07-29T12:38:14;46.30;21.10
15934;DHT22;8066;48.776;11.384;2022-07-29T12:40:42;45.90;21.20
15934;DHT22;8066;48.776;11.384;2022-07-29T12:43:12;45.40;21.30
15934;DHT22;8066;48.776;11.384;2022-07-29T12:45:43;45.00;21.50
15934;DHT22;8066;48.776;11.384;2022-07-29T12:48:13;44.60;21.70
15934;DHT22;8066;48.776;11.384;2022-07-29T12:50:55;44.20;22.00
15934;DHT22;8066;48.776;11.384;2022-07-29T12:53:24;43.90;22.30
15934;DHT22;8066;48.776;11.384;2022-07-29T12:55:53;43.70;22.40
15934;DHT22;8066;48.776;11.384;2022-07-29T12:58:33;43.40;22.50
15934;DHT22;8066;48.776;11.384;2022-07-29T13:01:06;43.10;22.60
15934;DHT22;8066;48.776;11.384;2022-07-29T13:03:47;42.90;22.70
15934;DHT22;8066;48.776;11.384;2022-07-29T13:06:32;42.60;22.90
15934;DHT22;8066;48.776;11.384;2022-07-29T13:09:03;42.30;23.10
15934;DHT22;8066;48.776;11.384;2022-07-29T13:11:32;42.00;23.30
15934;DHT22;8066;48.776;11.384;2022-07-29T13:14:00;41.80;23.40
15934;DHT22;8066;48.776;11.384;2022-07-29T13:16:27;41.50;23.70
15934;DHT22;8066;48.776;11.384;2022-07-29T13:19:11;41.30;24.00
15934;DHT22;8066;48.776;11.384;2022-07-29T13:21:39;41.20;24.50
15934;DHT22;8066;48.776;11.384;2022-07-29T13:24:07;41.10;24.50
15934;DHT22;8066;48.776;11.384;2022-07-29T13:26:35;41.00;24.50
15934;DHT22;8066;48.776;11.384;2022-07-29T13:29:05;40.90;24.70
15934;DHT22;8066;48.776;11.384;2022-07-29T13:31:32;40.70;24.90
15934;DHT22;8066;48.776;11.384;2022-07-29T13:33:59;40.50;25.10
15934;DHT22;8066;48.776;11.384;2022-07-29T13:36:27;40.30;25.20
15934;DHT22;8066;48.776;11.384;2022-07-29T13:38:55;40.10;25.40
15934;DHT22;8066;48.776;11.384;2022-07-29T13:41:21;39.90;25.60
15934;DHT22;8066;48.776;11.384;2022-07-29T13:43:48;39.70;25.80
15934;DHT22;8066;48.776;11.384;2022-07-29T13:46:15;39.60;26.00
15934;DHT22;8066;48.776;11.384;2022-07-29T13:48:42;39.40;26.20
15934;DHT22;8066;48.776;11.384;2022-07-29T13:51:09;39.20;26.20
15934;DHT22;8066;48.776;11.384;2022-07-29T13:53:37;39.10;26.30
15934;DHT22;8066;48.776;11.384;2022-07-29T13:56:04;39.00;26.50
15934;DHT22;8066;48.776;11.384;2022-07-29T13:58:32;38.80;26.60
15934;DHT22;8066;48.776;11.384;2022-07-29T14:00:59;38.70;26.70
15934;DHT22;8066;48.776;11.384;2022-07-29T14:03:26;38.50;26.80
15934;DHT22;8066;48.776;11.384;2022-07-29T14:05:53;38.40;26.90
15934;DHT22;8066;48.776;11.384;2022-07-29T14:08:20;38.30;27.00
15934;DHT22;8066;48.776;11.384;2022-07-29T14:10:48;38.20;27.20
15934;DHT22;8066;48.776;11.384;2022-07-29T14:13:15;38.20;27.30
15934;DHT22;8066;48.776;11.384;2022-07-29T14:15:42;38.10;27.30
15934;DHT22;8066;48.776;11.384;2022-07-29T14:18:09;38.10;27.40
15934;DHT22;8066;48.776;11.384;2022-07-29T14:20:36;38.00;27.50
15934;DHT22;8066;48.776;11.384;2022-07-29T14:23:03;37.90;27.70
15934;DHT22;8066;48.776;11.384;2022-07-29T14:25:30;37.90;27.70
15934;DHT22;8066;48.776;11.384;2022-07-29T14:27:58;37.80;27.70
15934;DHT22;8066;48.776;11.384;2022-07-29T14:30:25;37.80;28.50
15934;DHT22;8066;48.776;11.384;2022-07-29T14:32:52;37.80;28.00
15934;DHT22;8066;48.776;11.384;2022-07-29T14:35:19;37.70;27.90
15934;DHT22;8066;48.776;11.384;2022-07-29T14:37:45;37.60;27.90
15934;DHT22;8066;48.776;11.384;2022-07-29T14:40:12;37.60;28.20
15934;DHT22;8066;48.776;11.384;2022-07-29T14:42:40;37.50;28.30
15934;DHT22;8066;48.776;11.384;2022-07-29T14:45:09;37.50;28.50
15934;DHT22;8066;48.776;11.384;2022-07-29T14:47:37;37.40;28.80
15934;DHT22;8066;48.776;11.384;2022-07-29T14:50:06;37.30;28.90
15934;DHT22;8066;48.776;11.384;2022-07-29T14:52:33;37.20;29.00
15934;DHT22;8066;48.776;11.384;2022-07-29T14:55:00;37.10;29.10
15934;DHT22;8066;48.776;11.384;2022-07-29T14:57:28;36.90;29.20
15934;DHT22;8066;48.776;11.384;2022-07-29T14:59:55;36.80;29.40
15934;DHT22;8066;48.776;11.384;2022-07-29T15:02:23;36.70;29.60
15934;DHT22;8066;48.776;11.384;2022-07-29T15:04:50;36.60;29.70
15934;DHT22;8066;48.776;11.384;2022-07-29T15:07:17;36.40;29.70
15934;DHT22;8066;48.776;11.384;2022-07-29T15:09:44;36.50;30.00
15934;DHT22;8066;48.776;11.384;2022-07-29T15:12:11;36.40;30.00
15934;DHT22;8066;48.776;11.384;2022-07-29T15:14:38;36.30;30.10
15934;DHT22;8066;48.776;11.384;2022-07-29T15:17:05;36.20;30.20
15934;DHT22;8066;48.776;11.384;2022-07-29T15:19:33;36.10;30.40
15934;DHT22;8066;48.776;11.384;2022-07-29T15:22:01;36.00;30.70
15934;DHT22;8066;48.776;11.384;2022-07-29T15:24:30;35.90;30.60
15934;DHT22;8066;48.776;11.384;2022-07-29T15:26:57;35.90;30.70
15934;DHT22;8066;48.776;11.384;2022-07-29T15:29:24;35.90;30.70
15934;DHT22;8066;48.776;11.384;2022-07-29T15:31:51;35.90;30.70
15934;DHT22;8066;48.776;11.384;2022-07-29T15:34:18;35.80;30.50
15934;DHT22;8066;48.776;11.384;2022-07-29T15:36:47;35.70;30.20
15934;DHT22;8066;48.776;11.384;2022-07-29T15:39:14;35.70;30.20
15934;DHT22;8066;48.776;11.384;2022-07-29T15:41:41;35.60;30.30
15934;DHT22;8066;48.776;11.384;2022-07-29T15:44:09;35.50;30.00
15934;DHT22;8066;48.776;11.384;2022-07-29T15:46:35;35.50;29.70
15934;DHT22;8066;48.776;11.384;2022-07-29T15:49:20;35.40;29.60
15934;DHT22;8066;48.776;11.384;2022-07-29T15:51:48;35.30;29.70
15934;DHT22;8066;48.776;11.384;2022-07-29T15:54:15;35.20;29.70
15934;DHT22;8066;48.776;11.384;2022-07-29T15:56:42;35.10;29.60
15934;DHT22;8066;48.776;11.384;2022-07-29T16:01:38;34.90;29.80